createdAt,value
2016-07-20T00:00:55.625Z,0
2016-07-20T00:01:55.603Z,0
2016-07-20T00:02:55.593Z,0
2016-07-20T00:03:55.589Z,0
2016-07-20T00:04:55.557Z,0
2016-07-20T00:05:55.557Z,0
2016-07-20T00:06:55.529Z,0
2016-07-20T00:07:55.509Z,0
2016-07-20T00:08:55.493Z,0
2016-07-20T00:09:55.478Z,0
2016-07-20T00:10:55.466Z,0
2016-07-20T00:11:55.443Z,0
2016-07-20T00:12:55.451Z,0
2016-07-20T00:13:55.412Z,0
2016-07-20T00:14:55.400Z,0
2016-07-20T00:15:55.382Z,0
2016-07-20T00:16:55.364Z,0
2016-07-20T00:17:55.349Z,0
2016-07-20T00:18:55.338Z,0
2016-07-20T00:19:55.319Z,0
2016-07-20T00:20:55.309Z,0
2016-07-20T00:21:55.282Z,0
2016-07-20T00:22:55.270Z,0
2016-07-20T00:23:55.248Z,0
2016-07-20T00:24:55.240Z,0
2016-07-20T00:25:55.219Z,0
2016-07-20T00:26:55.207Z,0
2016-07-20T00:27:55.194Z,0
2016-07-20T00:28:55.169Z,0
2016-07-20T00:29:55.150Z,0
2016-07-20T00:30:55.140Z,0
2016-07-20T00:31:55.129Z,0
2016-07-20T00:32:55.104Z,0
2016-07-20T00:33:55.085Z,0
2016-07-20T00:34:55.072Z,0
2016-07-20T00:35:55.058Z,0
2016-07-20T00:36:55.046Z,0
2016-07-20T00:37:55.019Z,0
2016-07-20T00:38:55.007Z,0
2016-07-20T00:39:54.986Z,0
2016-07-20T00:40:54.974Z,0
2016-07-20T00:41:54.952Z,0
2016-07-20T00:42:54.941Z,0
2016-07-20T00:43:54.925Z,0
2016-07-20T00:44:54.908Z,0
2016-07-20T00:45:54.890Z,0
2016-07-20T00:46:54.869Z,0
2016-07-20T00:47:54.857Z,0
2016-07-20T00:48:54.837Z,0
2016-07-20T00:49:54.818Z,0
2016-07-20T00:50:54.808Z,0
2016-07-20T00:51:55.478Z,0
2016-07-20T00:52:54.772Z,0
2016-07-20T00:53:54.764Z,0
2016-07-20T00:54:54.737Z,0
2016-07-20T00:55:54.726Z,0
2016-07-20T00:56:54.704Z,0
2016-07-20T00:57:54.692Z,0
2016-07-20T00:58:54.668Z,0
2016-07-20T00:59:54.659Z,0
2016-07-20T01:00:54.637Z,0
2016-07-20T01:01:54.620Z,0
2016-07-20T01:02:54.606Z,0
2016-07-20T01:03:54.586Z,0
2016-07-20T01:04:54.565Z,0
2016-07-20T01:05:54.556Z,0
2016-07-20T01:06:54.536Z,0
2016-07-20T01:07:54.518Z,0
2016-07-20T01:08:54.503Z,0
2016-07-20T01:09:54.483Z,0
2016-07-20T01:10:54.468Z,0
2016-07-20T01:11:54.455Z,0
2016-07-20T01:12:54.432Z,0
2016-07-20T01:13:54.423Z,0
2016-07-20T01:14:54.402Z,0
2016-07-20T01:15:54.386Z,0
2016-07-20T01:16:54.371Z,0
2016-07-20T01:17:54.351Z,0
2016-07-20T01:18:54.335Z,0
2016-07-20T01:19:54.321Z,0
2016-07-20T01:20:54.297Z,0
2016-07-20T01:21:54.977Z,0
2016-07-20T01:22:54.263Z,0
2016-07-20T01:23:54.243Z,0
2016-07-20T01:24:54.230Z,0
2016-07-20T01:25:54.208Z,0
2016-07-20T01:26:54.196Z,0
2016-07-20T01:27:54.178Z,0
2016-07-20T01:28:54.167Z,0
2016-07-20T01:29:54.151Z,0
2016-07-20T01:30:54.124Z,0
2016-07-20T01:31:54.114Z,0
2016-07-20T01:32:54.090Z,0
2016-07-20T01:33:54.081Z,0
2016-07-20T01:34:54.062Z,0
2016-07-20T01:35:54.046Z,0
2016-07-20T01:36:54.027Z,0
2016-07-20T01:37:54.008Z,0
2016-07-20T01:38:53.991Z,0
2016-07-20T01:39:53.975Z,0
2016-07-20T01:40:53.954Z,0
2016-07-20T01:41:53.941Z,0
2016-07-20T01:42:53.920Z,0
2016-07-20T01:43:53.907Z,0
2016-07-20T01:44:53.886Z,0
2016-07-20T01:45:53.873Z,0
2016-07-20T01:46:53.857Z,0
2016-07-20T01:47:53.833Z,0
2016-07-20T01:48:53.821Z,0
2016-07-20T01:49:53.799Z,0
2016-07-20T01:50:53.786Z,0
2016-07-20T01:51:53.772Z,0
2016-07-20T01:52:53.750Z,0
2016-07-20T01:53:55.128Z,0
2016-07-20T01:54:53.716Z,0
2016-07-20T01:55:53.706Z,0
2016-07-20T01:56:53.679Z,0
2016-07-20T01:57:53.667Z,0
2016-07-20T01:58:53.646Z,0
2016-07-20T01:59:53.625Z,0
2016-07-20T02:00:53.632Z,0
2016-07-20T02:01:53.597Z,0
2016-07-20T02:02:53.580Z,0
2016-07-20T02:03:53.562Z,0
2016-07-20T02:04:53.538Z,0
2016-07-20T02:05:53.524Z,0
2016-07-20T02:06:53.503Z,0
2016-07-20T02:07:53.492Z,0
2016-07-20T02:08:53.476Z,0
2016-07-20T02:09:53.450Z,0
2016-07-20T02:10:53.445Z,0
2016-07-20T02:11:53.417Z,0
2016-07-20T02:12:53.414Z,0
2016-07-20T02:13:53.384Z,0
2016-07-20T02:14:53.362Z,0
2016-07-20T02:15:53.351Z,0
2016-07-20T02:16:53.337Z,0
2016-07-20T02:17:53.312Z,0
2016-07-20T02:18:53.294Z,0
2016-07-20T02:19:53.280Z,0
2016-07-20T02:20:53.271Z,0
2016-07-20T02:21:53.240Z,0
2016-07-20T02:22:53.228Z,0
2016-07-20T02:23:53.212Z,0
2016-07-20T02:24:53.193Z,0
2016-07-20T02:25:53.188Z,0
2016-07-20T02:26:53.162Z,0
2016-07-20T02:27:53.133Z,0
2016-07-20T02:28:53.122Z,0
2016-07-20T02:29:53.102Z,0
2016-07-20T02:30:53.084Z,0
2016-07-20T02:31:53.068Z,0
2016-07-20T02:32:53.047Z,0
2016-07-20T02:33:53.034Z,0
2016-07-20T02:34:53.011Z,0
2016-07-20T02:35:53.004Z,0
2016-07-20T02:36:52.985Z,0
2016-07-20T02:37:52.964Z,0
2016-07-20T02:38:52.944Z,0
2016-07-20T02:39:52.926Z,0
2016-07-20T02:40:52.905Z,0
2016-07-20T02:41:52.891Z,0
2016-07-20T02:42:52.869Z,0
2016-07-20T02:43:52.855Z,0
2016-07-20T02:44:52.837Z,0
2016-07-20T02:45:52.818Z,0
2016-07-20T02:46:53.494Z,0
2016-07-20T02:47:52.789Z,0
2016-07-20T02:48:52.769Z,0
2016-07-20T02:49:52.750Z,0
2016-07-20T02:50:52.731Z,0
2016-07-20T02:51:52.726Z,0
2016-07-20T02:52:52.693Z,0
2016-07-20T02:53:52.680Z,0
2016-07-20T02:54:52.659Z,0
2016-07-20T02:55:52.640Z,0
2016-07-20T02:56:52.628Z,0
2016-07-20T02:57:52.607Z,0
2016-07-20T02:58:52.590Z,0
2016-07-20T02:59:52.570Z,0
2016-07-20T03:00:52.553Z,0
2016-07-20T03:01:52.534Z,0
2016-07-20T03:02:52.513Z,0
2016-07-20T03:03:52.501Z,0
2016-07-20T03:04:52.482Z,0
2016-07-20T03:05:52.462Z,0
2016-07-20T03:06:52.448Z,0
2016-07-20T03:07:52.429Z,0
2016-07-20T03:08:52.411Z,0
2016-07-20T03:09:52.392Z,0
2016-07-20T03:10:52.386Z,0
2016-07-20T03:11:52.356Z,0
2016-07-20T03:12:52.334Z,0
2016-07-20T03:13:53.011Z,0
2016-07-20T03:14:52.299Z,0
2016-07-20T03:15:52.283Z,0
2016-07-20T03:16:52.265Z,0
2016-07-20T03:17:52.245Z,0
2016-07-20T03:18:52.230Z,5
2016-07-20T03:19:52.214Z,5
2016-07-20T03:20:52.195Z,5
2016-07-20T03:21:52.176Z,5
2016-07-20T03:22:52.164Z,5
2016-07-20T03:23:52.139Z,5
2016-07-20T03:24:52.123Z,5
2016-07-20T03:25:52.103Z,10
2016-07-20T03:26:52.086Z,10
2016-07-20T03:27:52.071Z,10
2016-07-20T03:28:52.051Z,10
2016-07-20T03:29:52.032Z,10
2016-07-20T03:30:52.011Z,15
2016-07-20T03:31:51.998Z,15
2016-07-20T03:32:51.981Z,15
2016-07-20T03:33:51.958Z,15
2016-07-20T03:34:51.943Z,20
2016-07-20T03:35:51.926Z,20
2016-07-20T03:36:51.903Z,20
2016-07-20T03:37:51.894Z,25
2016-07-20T03:38:51.871Z,25
2016-07-20T03:39:51.849Z,25
2016-07-20T03:40:51.838Z,30
2016-07-20T03:41:51.817Z,30
2016-07-20T03:42:51.795Z,35
2016-07-20T03:43:51.788Z,35
2016-07-20T03:44:51.756Z,35
2016-07-20T03:45:51.745Z,40
2016-07-20T03:46:51.724Z,40
2016-07-20T03:47:51.704Z,45
2016-07-20T03:48:51.700Z,45
2016-07-20T03:49:51.673Z,50
2016-07-20T03:50:51.653Z,50
2016-07-20T03:51:51.636Z,55
2016-07-20T03:52:51.616Z,55
2016-07-20T03:53:51.598Z,60
2016-07-20T03:54:51.583Z,60
2016-07-20T03:55:51.562Z,65
2016-07-20T03:56:51.544Z,70
2016-07-20T03:57:52.219Z,70
2016-07-20T03:58:51.508Z,75
2016-07-20T03:59:51.493Z,75
2016-07-20T04:00:51.471Z,80
2016-07-20T04:01:52.151Z,80
2016-07-20T04:02:51.442Z,85
2016-07-20T04:03:51.417Z,90
2016-07-20T04:04:51.401Z,90
2016-07-20T04:05:51.377Z,95
2016-07-20T04:06:51.363Z,95
2016-07-20T04:07:51.345Z,100
2016-07-20T04:08:51.327Z,105
2016-07-20T04:09:51.336Z,105
2016-07-20T04:10:51.291Z,110
2016-07-20T04:11:51.277Z,110
2016-07-20T04:12:51.257Z,115
2016-07-20T04:13:51.237Z,120
2016-07-20T04:14:51.224Z,120
2016-07-20T04:15:51.205Z,125
2016-07-20T04:16:51.190Z,130
2016-07-20T04:17:51.171Z,130
2016-07-20T04:18:51.150Z,135
2016-07-20T04:19:51.135Z,135
2016-07-20T04:20:51.120Z,140
2016-07-20T04:21:51.104Z,140
2016-07-20T04:22:51.084Z,145
2016-07-20T04:23:51.067Z,145
2016-07-20T04:24:51.048Z,150
2016-07-20T04:25:51.024Z,150
2016-07-20T04:26:51.013Z,155
2016-07-20T04:27:50.991Z,160
2016-07-20T04:28:50.977Z,160
2016-07-20T04:29:50.957Z,165
2016-07-20T04:30:50.938Z,165
2016-07-20T04:31:50.923Z,170
2016-07-20T04:32:50.903Z,170
2016-07-20T04:33:50.889Z,175
2016-07-20T04:34:50.872Z,175
2016-07-20T04:35:50.851Z,180
2016-07-20T04:36:50.834Z,180
2016-07-20T04:37:50.816Z,185
2016-07-20T04:38:50.801Z,185
2016-07-20T04:39:50.782Z,190
2016-07-20T04:40:50.763Z,190
2016-07-20T04:41:50.753Z,195
2016-07-20T04:42:50.728Z,195
2016-07-20T04:43:50.713Z,200
2016-07-20T04:44:50.694Z,200
2016-07-20T04:45:50.674Z,205
2016-07-20T04:46:50.663Z,205
2016-07-20T04:47:50.637Z,210
2016-07-20T04:48:50.624Z,210
2016-07-20T04:49:51.488Z,210
2016-07-20T04:50:50.593Z,215
2016-07-20T04:51:50.732Z,215
2016-07-20T04:52:50.552Z,220
2016-07-20T04:53:50.534Z,220
2016-07-20T04:54:50.743Z,225
2016-07-20T04:55:50.501Z,225
2016-07-20T04:56:50.483Z,230
2016-07-20T04:57:50.467Z,230
2016-07-20T04:58:50.459Z,235
2016-07-20T04:59:50.658Z,235
2016-07-20T05:00:50.419Z,240
2016-07-20T05:01:50.404Z,240
2016-07-20T05:02:50.381Z,245
2016-07-20T05:03:50.362Z,245
2016-07-20T05:04:51.194Z,250
2016-07-20T05:05:50.331Z,250
2016-07-20T05:06:50.310Z,255
2016-07-20T05:07:50.297Z,255
2016-07-20T05:08:51.018Z,260
2016-07-20T05:09:50.260Z,255
2016-07-20T05:10:50.246Z,260
2016-07-20T05:11:50.222Z,265
2016-07-20T05:12:50.211Z,270
2016-07-20T05:13:50.189Z,275
2016-07-20T05:14:50.177Z,275
2016-07-20T05:15:50.157Z,280
2016-07-20T05:16:50.138Z,285
2016-07-20T05:17:50.137Z,290
2016-07-20T05:18:50.132Z,290
2016-07-20T05:19:50.086Z,295
2016-07-20T05:20:50.768Z,300
2016-07-20T05:21:50.056Z,305
2016-07-20T05:22:50.738Z,310
2016-07-20T05:23:50.031Z,315
2016-07-20T05:24:50.004Z,315
2016-07-20T05:25:49.991Z,315
2016-07-20T05:26:49.971Z,320
2016-07-20T05:27:49.958Z,325
2016-07-20T05:28:49.937Z,330
2016-07-20T05:29:49.930Z,325
2016-07-20T05:30:49.907Z,330
2016-07-20T05:31:49.905Z,340
2016-07-20T05:32:49.907Z,350
2016-07-20T05:33:49.949Z,380
2016-07-20T05:34:49.847Z,435
2016-07-20T05:35:49.834Z,460
2016-07-20T05:36:50.006Z,405
2016-07-20T05:37:49.892Z,350
2016-07-20T05:38:50.474Z,350
2016-07-20T05:39:49.790Z,350
2016-07-20T05:40:49.796Z,360
2016-07-20T05:41:49.727Z,385
2016-07-20T05:42:49.718Z,385
2016-07-20T05:43:49.709Z,380
2016-07-20T05:44:49.697Z,375
2016-07-20T05:45:49.723Z,375
2016-07-20T05:46:49.676Z,380
2016-07-20T05:47:49.645Z,380
2016-07-20T05:48:50.055Z,380
2016-07-20T05:49:50.586Z,380
2016-07-20T05:50:49.811Z,385
2016-07-20T05:51:49.582Z,390
2016-07-20T05:52:49.569Z,395
2016-07-20T05:53:49.554Z,395
2016-07-20T05:54:49.537Z,395
2016-07-20T05:55:49.564Z,385
2016-07-20T05:56:49.595Z,380
2016-07-20T05:57:49.500Z,380
2016-07-20T05:58:50.203Z,380
2016-07-20T05:59:49.472Z,385
2016-07-20T06:00:49.458Z,385
2016-07-20T06:01:49.451Z,385
2016-07-20T06:02:49.426Z,385
2016-07-20T06:03:49.681Z,385
2016-07-20T06:04:49.614Z,385
2016-07-20T06:05:49.385Z,390
2016-07-20T06:06:49.377Z,390
2016-07-20T06:07:49.357Z,390
2016-07-20T06:08:50.789Z,395
2016-07-20T06:09:49.339Z,395
2016-07-20T06:10:49.325Z,395
2016-07-20T06:11:49.324Z,400
2016-07-20T06:12:49.295Z,400
2016-07-20T06:13:49.287Z,405
2016-07-20T06:14:49.288Z,410
2016-07-20T06:15:49.273Z,415
2016-07-20T06:16:49.254Z,445
2016-07-20T06:17:49.233Z,730
2016-07-20T06:18:49.228Z,1090
2016-07-20T06:19:49.219Z,1230
2016-07-20T06:20:49.205Z,1240
2016-07-20T06:21:49.191Z,1235
2016-07-20T06:22:49.190Z,1250
2016-07-20T06:23:49.166Z,1230
2016-07-20T06:24:49.160Z,1235
2016-07-20T06:25:49.164Z,1275
2016-07-20T06:26:49.131Z,1295
2016-07-20T06:27:49.128Z,1290
2016-07-20T06:28:49.122Z,1320
2016-07-20T06:29:49.102Z,1350
2016-07-20T06:30:49.158Z,1350
2016-07-20T06:31:49.274Z,1370
2016-07-20T06:32:49.098Z,1400
2016-07-20T06:33:49.181Z,1420
2016-07-20T06:34:49.063Z,1415
2016-07-20T06:35:49.776Z,1400
2016-07-20T06:36:49.195Z,1405
2016-07-20T06:37:49.042Z,1415
2016-07-20T06:38:49.030Z,1450
2016-07-20T06:39:49.005Z,1445
2016-07-20T06:40:49.002Z,1430
2016-07-20T06:41:48.994Z,1430
2016-07-20T06:42:49.695Z,1425
2016-07-20T06:43:49.154Z,1440
2016-07-20T06:44:49.138Z,1460
2016-07-20T06:45:49.010Z,1480
2016-07-20T06:46:48.961Z,1420
2016-07-20T06:47:48.941Z,1445
2016-07-20T06:48:49.771Z,1460
2016-07-20T06:49:49.020Z,1410
2016-07-20T06:50:49.746Z,1425
2016-07-20T06:51:49.198Z,1465
2016-07-20T06:52:49.283Z,1470
2016-07-20T06:53:48.994Z,1415
2016-07-20T06:54:49.112Z,1415
2016-07-20T06:55:49.248Z,1415
2016-07-20T06:56:48.903Z,1395
2016-07-20T06:57:49.006Z,1430
2016-07-20T06:58:49.047Z,1380
2016-07-20T06:59:48.847Z,1370
2016-07-20T07:00:49.126Z,1315
2016-07-20T07:01:49.067Z,1205
2016-07-20T07:02:49.324Z,1220
2016-07-20T07:03:48.962Z,1220
2016-07-20T07:04:49.138Z,1195
2016-07-20T07:05:48.817Z,1170
2016-07-20T07:06:48.823Z,1070
2016-07-20T07:07:49.540Z,990
2016-07-20T07:08:48.841Z,920
2016-07-20T07:09:50.389Z,875
2016-07-20T07:10:48.777Z,835
2016-07-20T07:11:49.351Z,785
2016-07-20T07:12:48.780Z,735
2016-07-20T07:13:50.241Z,715
2016-07-20T07:14:49.146Z,720
2016-07-20T07:15:50.819Z,720
2016-07-20T07:16:50.796Z,755
2016-07-20T07:17:49.583Z,1460
2016-07-20T07:18:49.590Z,2185
2016-07-20T07:19:49.562Z,2320
2016-07-20T07:20:50.116Z,2145
2016-07-20T07:21:48.720Z,2200
2016-07-20T07:22:48.716Z,2200
2016-07-20T07:23:49.655Z,2190
2016-07-20T07:24:48.717Z,2110
2016-07-20T07:25:48.749Z,2045
2016-07-20T07:26:49.150Z,2000
2016-07-20T07:27:48.682Z,1930
2016-07-20T07:28:48.748Z,1885
2016-07-20T07:29:49.368Z,1910
2016-07-20T07:30:49.549Z,1895
2016-07-20T07:31:49.506Z,1820
2016-07-20T07:32:48.661Z,1755
2016-07-20T07:33:48.903Z,1795
2016-07-20T07:34:49.684Z,1805
2016-07-20T07:35:48.651Z,1800
2016-07-20T07:36:48.674Z,1780
2016-07-20T07:37:48.976Z,1765
2016-07-20T07:38:48.739Z,1785
2016-07-20T07:39:50.972Z,1885
2016-07-20T07:40:50.950Z,1930
2016-07-20T07:41:49.220Z,1915
2016-07-20T07:42:49.173Z,1915
2016-07-20T07:43:48.980Z,1925
2016-07-20T07:44:48.707Z,1925
2016-07-20T07:45:48.599Z,1980
2016-07-20T07:46:48.694Z,1950
2016-07-20T07:47:48.594Z,1960
2016-07-20T07:48:48.767Z,1975
2016-07-20T07:49:48.630Z,1935
2016-07-20T07:50:48.616Z,1990
2016-07-20T07:51:48.575Z,2040
2016-07-20T07:52:48.570Z,2055
2016-07-20T07:53:49.284Z,2040
2016-07-20T07:54:48.892Z,2070
2016-07-20T07:55:48.674Z,2055
2016-07-20T07:56:48.593Z,2115
2016-07-20T07:57:48.549Z,2110
2016-07-20T07:58:48.650Z,2140
2016-07-20T07:59:48.591Z,2110
2016-07-20T08:00:48.673Z,2140
2016-07-20T08:01:48.545Z,2170
2016-07-20T08:02:48.788Z,2105
2016-07-20T08:03:49.012Z,2100
2016-07-20T08:04:48.601Z,2130
2016-07-20T08:05:48.525Z,2135
2016-07-20T08:06:48.523Z,2150
2016-07-20T08:07:48.528Z,2200
2016-07-20T08:08:48.708Z,2240
2016-07-20T08:09:48.704Z,2205
2016-07-20T08:10:49.195Z,2215
2016-07-20T08:11:48.933Z,2285
2016-07-20T08:12:49.231Z,2235
2016-07-20T08:13:48.557Z,2220
2016-07-20T08:14:48.650Z,2240
2016-07-20T08:15:48.535Z,2315
2016-07-20T08:16:48.575Z,2365
2016-07-20T08:17:49.293Z,2425
2016-07-20T08:18:49.818Z,2455
2016-07-20T08:19:48.522Z,2415
2016-07-20T08:20:50.331Z,2410
2016-07-20T08:21:48.492Z,2415
2016-07-20T08:22:48.492Z,2380
2016-07-20T08:23:48.492Z,2455
2016-07-20T08:24:50.360Z,2450
2016-07-20T08:25:49.304Z,2410
2016-07-20T08:26:49.150Z,2450
2016-07-20T08:27:49.752Z,2430
2016-07-20T08:28:48.505Z,2405
2016-07-20T08:29:49.174Z,2470
2016-07-20T08:30:48.828Z,2375
2016-07-20T08:31:49.415Z,2375
2016-07-20T08:32:48.484Z,2515
2016-07-20T08:33:49.585Z,2530
2016-07-20T08:34:48.482Z,2495
2016-07-20T08:35:49.801Z,2540
2016-07-20T08:36:48.493Z,2510
2016-07-20T08:37:50.503Z,2415
2016-07-20T08:38:52.983Z,2365
2016-07-20T08:39:48.500Z,2400
2016-07-20T08:40:48.647Z,2535
2016-07-20T08:41:49.622Z,2535
2016-07-20T08:42:50.821Z,2545
2016-07-20T08:43:50.535Z,2470
2016-07-20T08:44:50.240Z,2540
2016-07-20T08:45:49.236Z,2620
2016-07-20T08:46:48.485Z,2555
2016-07-20T08:47:49.556Z,2460
2016-07-20T08:48:48.624Z,2410
2016-07-20T08:49:48.798Z,2300
2016-07-20T08:50:50.578Z,2285
2016-07-20T08:51:48.651Z,2335
2016-07-20T08:52:50.460Z,2445
2016-07-20T08:53:48.551Z,2480
2016-07-20T08:54:48.970Z,2560
2016-07-20T08:55:49.460Z,2600
2016-07-20T08:56:48.955Z,2495
2016-07-20T08:57:48.689Z,2455
2016-07-20T08:58:50.928Z,2560
2016-07-20T08:59:48.742Z,2595
2016-07-20T09:00:48.600Z,2595
2016-07-20T09:01:49.464Z,2520
2016-07-20T09:02:48.879Z,2645
2016-07-20T09:03:49.489Z,2635
2016-07-20T09:04:48.474Z,2635
2016-07-20T09:05:49.321Z,2750
2016-07-20T09:06:49.636Z,2695
2016-07-20T09:07:48.499Z,2715
2016-07-20T09:08:49.234Z,2680
2016-07-20T09:09:48.479Z,2600
2016-07-20T09:10:48.544Z,2575
2016-07-20T09:11:48.588Z,2625
2016-07-20T09:12:49.322Z,2595
2016-07-20T09:13:48.934Z,2600
2016-07-20T09:14:48.967Z,2540
2016-07-20T09:15:48.482Z,2510
2016-07-20T09:16:49.372Z,2535
2016-07-20T09:17:48.486Z,2640
2016-07-20T09:18:49.822Z,2710
2016-07-20T09:19:48.576Z,2605
2016-07-20T09:20:48.712Z,2545
2016-07-20T09:21:49.212Z,2580
2016-07-20T09:22:48.861Z,2600
2016-07-20T09:23:49.367Z,2595
2016-07-20T09:24:49.019Z,2565
2016-07-20T09:25:50.575Z,2510
2016-07-20T09:26:48.860Z,2625
2016-07-20T09:27:49.056Z,2630
2016-07-20T09:28:48.793Z,2550
2016-07-20T09:29:48.716Z,2515
2016-07-20T09:30:50.397Z,2550
2016-07-20T09:31:50.906Z,2610
2016-07-20T09:32:50.189Z,2595
2016-07-20T09:33:50.687Z,2535
2016-07-20T09:34:50.012Z,2570
2016-07-20T09:35:51.552Z,2600
2016-07-20T09:36:50.781Z,2565
2016-07-20T09:37:49.923Z,2550
2016-07-20T09:38:50.988Z,2515
2016-07-20T09:39:51.789Z,2515
2016-07-20T09:40:48.545Z,2535
2016-07-20T09:41:48.522Z,2655
2016-07-20T09:42:48.549Z,2720
2016-07-20T09:43:48.834Z,2670
2016-07-20T09:44:48.534Z,2670
2016-07-20T09:45:48.771Z,2670
2016-07-20T09:46:49.294Z,2620
2016-07-20T09:47:48.879Z,2650
2016-07-20T09:48:48.569Z,2775
2016-07-20T09:49:49.242Z,2780
2016-07-20T09:50:49.227Z,2585
2016-07-20T09:51:48.543Z,2600
2016-07-20T09:52:49.010Z,2665
2016-07-20T09:53:50.133Z,2585
2016-07-20T09:54:48.855Z,2540
2016-07-20T09:55:49.741Z,2580
2016-07-20T09:56:49.765Z,2700
2016-07-20T09:57:48.554Z,2780
2016-07-20T09:58:48.758Z,2775
2016-07-20T09:59:48.582Z,2690
2016-07-20T10:00:48.777Z,2565
2016-07-20T10:01:48.919Z,2665
2016-07-20T10:02:50.411Z,2670
2016-07-20T10:03:49.230Z,2695
2016-07-20T10:04:50.832Z,2825
2016-07-20T10:05:49.692Z,2825
2016-07-20T10:06:49.818Z,2820
2016-07-20T10:07:49.536Z,2765
2016-07-20T10:08:48.682Z,2850
2016-07-20T10:09:48.950Z,2925
2016-07-20T10:10:48.727Z,2795
2016-07-20T10:11:48.791Z,2755
2016-07-20T10:12:49.346Z,2910
2016-07-20T10:13:50.660Z,2965
2016-07-20T10:14:48.991Z,2885
2016-07-20T10:15:50.650Z,2745
2016-07-20T10:16:48.670Z,2670
2016-07-20T10:17:48.635Z,2710
2016-07-20T10:18:48.623Z,2755
2016-07-20T10:19:49.493Z,2815
2016-07-20T10:20:48.819Z,2875
2016-07-20T10:21:48.634Z,2810
2016-07-20T10:22:48.793Z,2805
2016-07-20T10:23:48.783Z,2870
2016-07-20T10:24:49.359Z,2780
2016-07-20T10:25:48.649Z,2880
2016-07-20T10:26:49.318Z,2930
2016-07-20T10:27:49.011Z,2860
2016-07-20T10:28:50.386Z,2820
2016-07-20T10:29:49.377Z,2795
2016-07-20T10:30:49.060Z,2775
2016-07-20T10:31:48.753Z,2800
2016-07-20T10:32:48.677Z,2850
2016-07-20T10:33:49.145Z,1920
2016-07-20T10:34:48.749Z,705
2016-07-20T10:35:48.969Z,550
2016-07-20T10:36:50.186Z,560
2016-07-20T10:37:48.986Z,1065
2016-07-20T10:38:49.244Z,2305
2016-07-20T10:39:48.694Z,2750
2016-07-20T10:40:49.522Z,2810
2016-07-20T10:41:48.878Z,2835
2016-07-20T10:42:48.770Z,2865
2016-07-20T10:43:49.178Z,2885
2016-07-20T10:44:48.720Z,2885
2016-07-20T10:45:48.942Z,2865
2016-07-20T10:46:48.915Z,2840
2016-07-20T10:47:48.775Z,2835
2016-07-20T10:48:48.870Z,2815
2016-07-20T10:49:50.331Z,2820
2016-07-20T10:50:49.181Z,2890
2016-07-20T10:51:48.966Z,2810
2016-07-20T10:52:48.861Z,2845
2016-07-20T10:53:49.142Z,2905
2016-07-20T10:54:49.491Z,2875
2016-07-20T10:55:48.836Z,2870
2016-07-20T10:56:49.677Z,2895
2016-07-20T10:57:48.764Z,2775
2016-07-20T10:58:48.761Z,2805
2016-07-20T10:59:48.752Z,2965
2016-07-20T11:00:48.849Z,2980
2016-07-20T11:01:48.757Z,2975
2016-07-20T11:02:48.769Z,2970
2016-07-20T11:03:48.763Z,2915
2016-07-20T11:04:49.494Z,2890
2016-07-20T11:05:49.867Z,2940
2016-07-20T11:06:48.930Z,2980
2016-07-20T11:07:50.955Z,2930
2016-07-20T11:08:49.259Z,2925
2016-07-20T11:09:48.852Z,2875
2016-07-20T11:10:49.883Z,2920
2016-07-20T11:11:50.161Z,3000
2016-07-20T11:12:48.816Z,3085
2016-07-20T11:13:49.300Z,3080
2016-07-20T11:14:48.926Z,3040
2016-07-20T11:15:50.652Z,3025
2016-07-20T11:16:51.403Z,2930
2016-07-20T11:17:51.308Z,2945
2016-07-20T11:18:50.607Z,3000
2016-07-20T11:19:49.798Z,3020
2016-07-20T11:20:51.812Z,3045
2016-07-20T11:21:50.742Z,3020
2016-07-20T11:22:49.008Z,3070
2016-07-20T11:23:50.191Z,3175
2016-07-20T11:24:51.164Z,3155
2016-07-20T11:25:50.750Z,3090
2016-07-20T11:26:49.254Z,2975
2016-07-20T11:27:49.437Z,2925
2016-07-20T11:28:49.289Z,3015
2016-07-20T11:29:50.254Z,3125
2016-07-20T11:30:49.944Z,3095
2016-07-20T11:31:49.114Z,3080
2016-07-20T11:32:48.932Z,3145
2016-07-20T11:33:49.117Z,3145
2016-07-20T11:34:51.186Z,3300
2016-07-20T11:35:51.409Z,3390
2016-07-20T11:36:51.119Z,3315
2016-07-20T11:37:52.010Z,3235
2016-07-20T11:38:50.052Z,3325
2016-07-20T11:39:50.889Z,3360
2016-07-20T11:40:49.703Z,3330
2016-07-20T11:41:50.683Z,3400
2016-07-20T11:42:50.843Z,3430
2016-07-20T11:43:49.426Z,3415
2016-07-20T11:44:51.056Z,3425
2016-07-20T11:45:50.067Z,3290
2016-07-20T11:46:49.540Z,3465
2016-07-20T11:47:50.103Z,3430
2016-07-20T11:48:50.203Z,3240
2016-07-20T11:49:51.180Z,3305
2016-07-20T11:50:50.060Z,3305
2016-07-20T11:51:49.176Z,3265
2016-07-20T11:52:49.958Z,3335
2016-07-20T11:53:50.970Z,3290
2016-07-20T11:54:50.136Z,3215
2016-07-20T11:55:50.026Z,3345
2016-07-20T11:56:49.686Z,3460
2016-07-20T11:57:50.620Z,3410
2016-07-20T11:58:49.655Z,3405
2016-07-20T11:59:49.738Z,3505
2016-07-20T12:00:50.266Z,3575
2016-07-20T12:01:50.938Z,3565
2016-07-20T12:02:49.748Z,3350
2016-07-20T12:03:49.489Z,3355
2016-07-20T12:04:49.307Z,3610
2016-07-20T12:05:49.566Z,3605
2016-07-20T12:06:49.080Z,3545
2016-07-20T12:07:49.872Z,3570
2016-07-20T12:08:49.198Z,3600
2016-07-20T12:09:49.155Z,3630
2016-07-20T12:10:49.117Z,3620
2016-07-20T12:11:49.346Z,3545
2016-07-20T12:12:49.125Z,3505
2016-07-20T12:13:49.118Z,3480
2016-07-20T12:14:49.128Z,3620
2016-07-20T12:15:50.050Z,3710
2016-07-20T12:16:50.131Z,3725
2016-07-20T12:17:50.141Z,3800
2016-07-20T12:18:49.369Z,3845
2016-07-20T12:19:50.176Z,3685
2016-07-20T12:20:49.301Z,3680
2016-07-20T12:21:49.401Z,3650
2016-07-20T12:22:51.091Z,3635
2016-07-20T12:23:50.743Z,3665
2016-07-20T12:24:49.836Z,3575
2016-07-20T12:25:49.398Z,3535
2016-07-20T12:26:50.448Z,3530
2016-07-20T12:27:51.648Z,3510
2016-07-20T12:28:49.427Z,3620
2016-07-20T12:29:49.928Z,3675
2016-07-20T12:30:50.783Z,3595
2016-07-20T12:31:50.249Z,3625
2016-07-20T12:32:50.057Z,3755
2016-07-20T12:33:50.136Z,3685
2016-07-20T12:34:50.148Z,3530
2016-07-20T12:35:49.937Z,3515
2016-07-20T12:36:50.013Z,3395
2016-07-20T12:37:51.113Z,3490
2016-07-20T12:38:50.227Z,3615
2016-07-20T12:39:50.748Z,3485
2016-07-20T12:40:49.666Z,3480
2016-07-20T12:41:49.695Z,3520
2016-07-20T12:42:49.596Z,3600
2016-07-20T12:43:49.784Z,3450
2016-07-20T12:44:51.068Z,3515
2016-07-20T12:45:49.331Z,3505
2016-07-20T12:46:49.313Z,3490
2016-07-20T12:47:49.414Z,3480
2016-07-20T12:48:49.382Z,3540
2016-07-20T12:49:49.338Z,3615
2016-07-20T12:50:49.562Z,3535
2016-07-20T12:51:49.352Z,3505
2016-07-20T12:52:49.352Z,3505
2016-07-20T12:53:49.382Z,3540
2016-07-20T12:54:49.422Z,3555
2016-07-20T12:55:49.525Z,3570
2016-07-20T12:56:50.072Z,3600
2016-07-20T12:57:50.370Z,3535
2016-07-20T12:58:49.394Z,3465
2016-07-20T12:59:49.397Z,3370
2016-07-20T13:00:49.406Z,3280
2016-07-20T13:01:49.411Z,3225
2016-07-20T13:02:49.411Z,3310
2016-07-20T13:03:49.491Z,3445
2016-07-20T13:04:49.429Z,3560
2016-07-20T13:05:50.123Z,3485
2016-07-20T13:06:49.714Z,3450
2016-07-20T13:07:49.449Z,3480
2016-07-20T13:08:49.461Z,3530
2016-07-20T13:09:49.464Z,3415
2016-07-20T13:10:49.479Z,3300
2016-07-20T13:11:49.476Z,3390
2016-07-20T13:12:49.734Z,3535
2016-07-20T13:13:49.551Z,3380
2016-07-20T13:14:50.599Z,3365
2016-07-20T13:15:49.955Z,3470
2016-07-20T13:16:49.510Z,3480
2016-07-20T13:17:49.769Z,3415
2016-07-20T13:18:49.812Z,3450
2016-07-20T13:19:49.518Z,3440
2016-07-20T13:20:49.648Z,3465
2016-07-20T13:21:49.888Z,3380
2016-07-20T13:22:49.941Z,3430
2016-07-20T13:23:49.744Z,3465
2016-07-20T13:24:50.487Z,3420
2016-07-20T13:25:49.711Z,3430
2016-07-20T13:26:49.618Z,3250
2016-07-20T13:27:50.391Z,3300
2016-07-20T13:28:49.699Z,3320
2016-07-20T13:29:49.637Z,3300
2016-07-20T13:30:49.748Z,3360
2016-07-20T13:31:49.792Z,3490
2016-07-20T13:32:49.602Z,3405
2016-07-20T13:33:50.019Z,3420
2016-07-20T13:34:50.501Z,3555
2016-07-20T13:35:49.622Z,3480
2016-07-20T13:36:49.769Z,3430
2016-07-20T13:37:49.640Z,3425
2016-07-20T13:38:49.737Z,3405
2016-07-20T13:39:49.918Z,3405
2016-07-20T13:40:49.819Z,3340
2016-07-20T13:41:49.656Z,3320
2016-07-20T13:42:49.889Z,3280
2016-07-20T13:43:49.836Z,3285
2016-07-20T13:44:51.826Z,3220
2016-07-20T13:45:50.767Z,3105
2016-07-20T13:46:49.828Z,3225